Terminal Aerodrome Forecast
Issued by NWS

Home | Current Version | Previous Version | Text Only | Print | Product List | Glossary On
Versions: 1 2 3 4 5 6 7 8 9 10 11 12 13 14 15 16 17 18 19 20 21
000
FTUS43 KBIS 280000 CCA
TAFJMS
TAF COR
KJMS 280009Z 2800/2824 28005KT P6SM BKN025 BKN090
     FM280500 03007KT P6SM OVC015
     FM281300 02010KT P6SM BKN080=

USA.gov is the U.S. government's official web portal to all federal, state and local government web resources and services.